Rockford, IA (50468)

8:52 PM CDT on August 28, 2015 (GMT -0500)
NorthWestMasonCity | | Change Station
CLOSE
Current Station
Personal Weather Station
Location: Mason City, IA
Elevation: 1129 ft
Nearby Weather Stations

Elev 1129 ft 43.16 °N, 93.20 °W | Updated 11 seconds ago

Overcast
Overcast
58.7 °F
Feels Like 58.7 °F
N
5.0
Wind Variable Wind from NNE
Gusts 6.0 mph

Today
High -- | Low -- °F
--% Chance of Precip.
Yesterday
High -- | Low -- °F
Precip. -- in
6:31 AM 7:53 PM
Waxing Gibbous, 99% visible
Pressure 29.97 in
Visibility 1.8 miles
Clouds Overcast 400 ft
Dew Point 56 °F
Humidity 92%
Rainfall 2.17 in
Snow Depth Not available.
UV 0 out of 12
Pollen 1.10 out of 12
Air Quality Not available.
Flu Activity Not available.
METAR KCCY 290135Z AUTO 06012KT 1 3/4SM -RA OVC004 16/16 A2997 RMK AO2
Pressure 29.97 in
Visibility 1.8 miles
Clouds Overcast 400 ft
Dew Point 56 °F
Humidity 92%
Rainfall 2.17 in
Snow Depth Not available.
UV 0 out of 12
Pollen 1.10 out of 12
Air Quality Not available.
Flu Activity Not available.
METAR KCCY 290135Z AUTO 06012KT 1 3/4SM -RA OVC004 16/16 A2997 RMK AO2

10-Day Weather Forecast

×

Almanac

Astronomy

Aug. 28, 2015 Rise Set
Actual Time
Civil Twilight
Nautical Twilight
Astronomical Twilight
Moon
Length of Visible Light
Length of Day
Tomorrow will be .
, % of the Moon is Illuminated

Today's Extremes

State Highs State Lows

Community

WunderPhotos

Upload Photos

1,850,566 photos uploaded!

WunderBlogs® & News

Nearby

Air Quality

  Air Quality AQ Index Pollutant
Not available.

Snow Depth

Station Depth Elevation

Earthquake Activity

City Distance Mag. Time & Date
Minimum magnitude displayed is 2.5.

Coastal Water Temperatures

Place Temperature

Stations

Nearby Weather Stations

Station Location Temp. Windchill Dew Point Humidity Wind Precip. Elev Updated Type